Have a Safe July 4th! 

Flight Track Log - Related Links

Times and Time Zones

All times are in EDT time to prevent confusion due to time zone crossing. See the N1926A flight status page for this flight to view local times or setup timezone preferences in your user account.

Time Position Orientation Groundspeed Altitude Reporting Facility
EDT Latitude Longitude Course Direction KTS MPH feet Rate Location/Type
Tue 06:09:08 PM 32.4978 -85.9597 275° West 185 213 5,200  Level Atlanta Center
Tue 06:11:08 PM 32.5147 -86.0661 281° West 179 206 9,100 1,900 Climbing Atlanta Center
Tue 06:12:08 PM 32.5158 -86.1253 271° West 179 206 10,900 1,850 Climbing Atlanta Center
Tue 06:13:00 PM 32.5474 -86.3365 275° West  Level Estimated
Tue 06:13:08 PM 32.5211 -86.1869 276° West 184 212 12,800  Level Atlanta Center
Tue 06:14:00 PM 32.5527 -86.4133 275° West  Level Estimated
Tue 06:14:08 PM 32.5242 -86.2461 274° West 184 212 14,600  Level Atlanta Center
Tue 06:15:08 PM 32.5294 -86.3078 276° West 184 212 16,300 1,750 Climbing Atlanta Center
Tue 06:16:08 PM 32.5322 -86.3719 273° West 184 212 18,100 1,650 Climbing Atlanta Center
Tue 06:17:08 PM 32.5333 -86.4311 271° West 178 205 19,600 1,350 Climbing Atlanta Center
Tue 06:18:08 PM 32.5364 -86.4878 274° West 178 205 20,800 1,200 Climbing Atlanta Center
Tue 06:19:08 PM 32.5392 -86.5544 273° West 183 211 22,000 1,100 Climbing Atlanta Center
Tue 06:20:08 PM 32.5400 -86.6161 271° West 183 211 23,000 1,150 Climbing Atlanta Center
Tue 06:21:08 PM 32.5450 -86.6803 275° West 188 216 24,300 1,100 Climbing Atlanta Center
Tue 06:22:08 PM 32.5478 -86.7394 273° West 188 216 25,200 850 Climbing Atlanta Center
Tue 06:23:08 PM 32.5464 -86.8036 269° West 188 216 26,000 400 Climbing Atlanta Center
Tue 06:24:08 PM 32.5469 -86.8725 271° West 199 229 26,000  Level Atlanta Center
Tue 06:25:08 PM 32.5472 -86.9514 270° West 224 258 26,000  Level Atlanta Center
Tue 06:26:08 PM 32.5472 -87.0328 270° West 240 276 26,000  Level Atlanta Center
Tue 06:27:08 PM 32.5472 -87.1189 270° West 252 290 26,000  Level Atlanta Center
Tue 06:28:08 PM 32.5492 -87.2028 272° West 258 297 26,000  Level Atlanta Center
Tue 06:29:08 PM 32.5556 -87.2869 275° West 258 297 26,000  Level Atlanta Center
Tue 06:30:08 PM 32.5572 -87.3731 271° West 258 297 26,000  Level Atlanta Center
Tue 06:31:08 PM 32.5592 -87.4619 272° West 258 297 26,000  Level Atlanta Center
Tue 06:32:08 PM 32.5650 -87.5508 274° West 268 308 26,000  Level Atlanta Center
Tue 06:33:56 PM 32.5728 -87.7072 273° West 280 322 26,000  Level Memphis Center
Tue 06:34:56 PM 32.5764 -87.7886 273° West 273 314 26,000  Level Memphis Center
Tue 06:35:56 PM 32.5783 -87.8747 272° West 262 302 26,000  Level Memphis Center
Tue 06:36:56 PM 32.5861 -87.9658 276° West 257 296 26,000  Level Memphis Center
Tue 06:37:56 PM 32.5900 -88.0469 273° West 252 290 26,000  Level Memphis Center
Tue 06:38:56 PM 32.5956 -88.1331 274° West 252 290 26,000  Level Memphis Center
Tue 06:39:56 PM 32.5992 -88.2144 273° West 252 290 26,000  Level Memphis Center
Tue 06:40:56 PM 32.6025 -88.2981 273° West 252 290 26,000  Level Memphis Center
Tue 06:41:56 PM 32.6081 -88.3819 275° West 252 290 26,000  Level Memphis Center
Tue 06:42:56 PM 32.6094 -88.4633 271° West 252 290 26,000  Level Memphis Center
Tue 06:43:56 PM 32.6106 -88.5469 271° West 252 290 26,000  Level Memphis Center
Tue 06:44:56 PM 32.6139 -88.6308 273° West 257 296 26,000  Level Memphis Center
Tue 06:45:56 PM 32.6172 -88.7147 273° West 252 290 26,000  Level Memphis Center
Tue 06:46:56 PM 32.6203 -88.7986 272° West 252 290 26,000  Level Memphis Center
Tue 06:47:56 PM 32.6214 -88.8822 271° West 252 290 26,000  Level Memphis Center
Tue 06:48:56 PM 32.6264 -88.9661 274° West 252 290 26,000  Level Memphis Center
Tue 06:49:56 PM 32.6275 -89.0500 271° West 252 290 26,000  Level Memphis Center
Tue 06:50:56 PM 32.6219 -89.1339 266° West 252 290 26,000  Level Memphis Center
Tue 06:51:56 PM 32.6167 -89.2203 266° West 257 296 26,000  Level Memphis Center
Tue 06:52:56 PM 32.6089 -89.2944 263° West 257 296 26,000  Level Memphis Center
Tue 06:53:56 PM 32.6033 -89.3783 266° West 257 296 26,000  Level Memphis Center
Tue 06:54:56 PM 32.5956 -89.4597 264° West 257 296 26,000  Level Memphis Center
Tue 06:55:56 PM 32.5878 -89.5436 264° West 257 296 26,000  Level Memphis Center
Tue 06:56:56 PM 32.5800 -89.6250 264° West 257 296 26,000  Level Memphis Center
Tue 06:57:56 PM 32.5719 -89.7064 263° West 257 296 26,000  Level Memphis Center
Tue 06:58:56 PM 32.5642 -89.7878 264° West 257 296 26,000  Level Memphis Center
Tue 06:59:56 PM 32.5561 -89.8717 264° West 257 296 26,000  Level Memphis Center
Tue 07:00:56 PM 32.5481 -89.9531 263° West 257 296 26,000  Level Memphis Center
Tue 07:01:56 PM 32.5419 -90.0344 265° West 257 296 26,000  Level Memphis Center
Tue 07:02:56 PM 32.5339 -90.1183 264° West 257 296 26,000  Level Memphis Center
Tue 07:03:56 PM 32.5256 -90.1997 263° West 257 296 26,000  Level Memphis Center
Tue 07:04:56 PM 32.5175 -90.2833 264° West 257 296 26,000  Level Memphis Center
Tue 07:05:56 PM 32.5092 -90.3622 263° West 257 296 26,000  Level Memphis Center
Tue 07:06:56 PM 32.4986 -90.4411 261° West 257 296 26,000  Level Memphis Center
Tue 07:07:56 PM 32.4736 -90.5175 249° West 257 296 26,000  Level Memphis Center
Tue 07:08:56 PM 32.4506 -90.5961 251° West 257 296 26,000  Level Memphis Center
Tue 07:09:56 PM 32.4314 -90.6747 254° West 257 296 26,000  Level Memphis Center
Tue 07:10:56 PM 32.4103 -90.7511 252° West 257 296 26,000  Level Memphis Center
Tue 07:11:56 PM 32.3933 -90.8297 256° West 252 290 26,000  Level Memphis Center
Tue 07:12:56 PM 32.3722 -90.9058 252° West 247 284 26,000  Level Memphis Center
Tue 07:13:45 PM 32.3578 -90.9667 254° West 249 287 26,000  Level Houston Center
Tue 07:14:47 PM 32.3375 -91.0433 253° West 245 282 26,000  Level Houston Center
Tue 07:15:49 PM 32.3128 -91.1353 252° West 246 283 26,000  Level Houston Center
Tue 07:16:51 PM 32.2903 -91.2125 251° West 248 285 26,000  Level Houston Center
Tue 07:17:53 PM 32.2689 -91.2883 252° West 245 282 26,000  Level Houston Center
Tue 07:18:56 PM 32.2478 -91.3650 252° West 245 282 26,000  Level Houston Center
Tue 07:19:58 PM 32.2269 -91.4403 252° West 244 281 26,000  Level Houston Center
Tue 07:21:00 PM 32.2019 -91.5333 252° West 247 284 26,000  Level Houston Center
Tue 07:22:02 PM 32.1803 -91.6100 252° West 247 284 26,000  Level Houston Center
Tue 07:23:04 PM 32.1592 -91.6889 252° West 250 288 26,000  Level Houston Center
Tue 07:24:06 PM 32.1383 -91.7650 252° West 246 283 26,000  Level Houston Center
Tue 07:25:08 PM 32.1175 -91.8425 252° West 248 285 26,000  Level Houston Center
Tue 07:26:10 PM 32.0964 -91.9175 252° West 243 280 26,000  Level Houston Center
Tue 07:27:12 PM 32.0708 -92.0083 252° West 244 281 26,000  Level Houston Center
Tue 07:28:15 PM 32.0503 -92.0800 251° West 242 278 26,000  Level Houston Center
Tue 07:29:17 PM 32.0286 -92.1536 251° West 241 277 26,000  Level Houston Center
Tue 07:30:19 PM 32.0064 -92.2281 251° West 242 278 26,000  Level Houston Center
Tue 07:31:21 PM 31.9811 -92.3167 251° West 239 275 26,000  Level Houston Center
Tue 07:32:23 PM 31.9606 -92.3897 252° West 237 273 26,000  Level Houston Center
Tue 07:33:25 PM 31.9406 -92.4642 252° West 238 274 26,000  Level Houston Center
Tue 07:34:27 PM 31.9208 -92.5369 252° West 236 272 26,000  Level Houston Center
Tue 07:35:29 PM 31.9006 -92.6097 252° West 236 272 26,000  Level Houston Center
Tue 07:36:32 PM 31.8800 -92.6825 252° West 237 273 26,000  Level Houston Center
Tue 07:37:34 PM 31.8542 -92.7681 250° West 233 268 26,000  Level Houston Center
Tue 07:38:36 PM 31.8339 -92.8408 252° West 233 268 26,000  Level Houston Center
Tue 07:39:38 PM 31.8122 -92.9106 250° West 230 265 26,000  Level Houston Center
Tue 07:40:40 PM 31.7931 -92.9822 253° West 230 265 26,000  Level Houston Center
Tue 07:41:42 PM 31.7725 -93.0536 251° West 231 266 26,000  Level Houston Center
Tue 07:42:44 PM 31.7475 -93.1383 251° West 230 265 26,000  Level Houston Center
Tue 07:43:46 PM 31.7258 -93.2083 250° West 230 265 26,000  Level Houston Center
Tue 07:44:48 PM 31.7053 -93.2850 253° West 231 266 26,000  Level Houston Center
Tue 07:45:51 PM 31.6867 -93.3506 252° West 228 262 26,000  Level Houston Center
Tue 07:46:53 PM 31.6656 -93.4219 251° West 231 266 26,000  Level Houston Center
Tue 07:47:55 PM 31.6442 -93.4928 250° West 231 266 26,000  Level Houston Center
Tue 07:49:09 PM 31.6144 -93.5914 251° West 231 266 26,000  Level Houston Center
Tue 07:50:12 PM 31.5936 -93.6667 252° West 228 262 26,000  Level Houston Center
Tue 07:51:14 PM 31.5722 -93.7386 251° West 231 266 26,000  Level Houston Center
Tue 07:52:16 PM 31.5506 -93.8089 250° West 231 266 26,000  Level Houston Center
Tue 07:53:18 PM 31.5300 -93.8792 251° West 229 264 26,000  Level Houston Center
Tue 07:54:20 PM 31.5086 -93.9506 251° West 232 267 26,000  Level Houston Center
Tue 07:55:22 PM 31.4844 -94.0186 247° West 228 262 26,000  Level Houston Center
Tue 07:56:24 PM 31.4553 -94.1025 248° West 231 266 26,000  Level Houston Center
Tue 07:57:26 PM 31.4350 -94.1722 251° West 228 262 26,000  Level Houston Center
Tue 07:58:28 PM 31.4167 -94.2456 254° West 233 268 26,000  Level Houston Center
Tue 07:59:31 PM 31.3992 -94.3178 254° West 231 266 26,000  Level Houston Center
Tue 08:00:33 PM 31.3806 -94.3906 253° West 233 268 26,000  Level Houston Center
Tue 08:01:35 PM 31.3600 -94.4611 251° West 231 266 26,000  Level Houston Center
Tue 08:02:37 PM 31.3122 -94.5322 232° Southwest 230 265 26,000  Level Houston Center
Tue 08:03:39 PM 31.2678 -94.5892 228° Southwest 235 270 26,000  Level Houston Center
Tue 08:04:41 PM 31.2219 -94.6442 226° Southwest 235 270 26,000  Level Houston Center
Tue 08:05:43 PM 31.1747 -94.7011 226° Southwest 236 272 26,000  Level Houston Center
Tue 08:06:45 PM 31.1278 -94.7589 227° Southwest 240 276 26,000  Level Houston Center
Tue 08:07:47 PM 31.0839 -94.8150 228° Southwest 234 269 26,000  Level Houston Center
Tue 08:08:50 PM 31.0386 -94.8700 226° Southwest 234 269 26,000  Level Houston Center
Tue 08:09:52 PM 30.9944 -94.9239 226° Southwest 230 265 26,000 -48 Level Houston Center
Tue 08:10:54 PM 30.9489 -94.9769 225° Southwest 231 266 25,900  Descending Houston Center
Tue 08:11:56 PM 30.8958 -95.0394 225° Southwest 227 261 26,000  Climbing Houston Center
Tue 08:12:58 PM 30.8506 -95.0928 225° Southwest 230 265 25,900  Descending Houston Center
Tue 08:14:00 PM 30.8056 -95.1467 226° Southwest 231 266 26,000 48 Climbing Houston Center
Tue 08:15:02 PM 30.7614 -95.2011 227° Southwest 231 266 26,000 -48 Level Houston Center
Tue 08:16:04 PM 30.7267 -95.2611 236° Southwest 224 258 25,900  Descending Houston Center
Tue 08:17:06 PM 30.6925 -95.3231 237° Southwest 226 260 26,000 48 Climbing Houston Center
Tue 08:18:09 PM 30.6514 -95.4003 238° Southwest 232 267 26,000  Level Houston Center
Tue 08:19:11 PM 30.6153 -95.4647 237° Southwest 234 269 26,000  Level Houston Center
Tue 08:20:13 PM 30.5792 -95.5264 236° Southwest 233 268 26,000  Level Houston Center
Tue 08:21:15 PM 30.5403 -95.5894 234° Southwest 238 274 26,000 -48 Level Houston Center
Tue 08:22:17 PM 30.5017 -95.6511 234° Southwest 238 274 25,900  Descending Houston Center
Tue 08:23:19 PM 30.4647 -95.7108 234° Southwest 233 268 26,000  Climbing Houston Center
Tue 08:24:21 PM 30.4192 -95.7853 235° Southwest 235 270 25,900  Descending Houston Center
Tue 08:25:23 PM 30.3819 -95.8492 236° Southwest 239 275 26,000 48 Climbing Houston Center
Tue 08:26:25 PM 30.3458 -95.9117 236° Southwest 235 270 26,000 -48 Level Houston Center
Tue 08:27:27 PM 30.3097 -95.9744 236° Southwest 235 270 25,900  Descending Houston Center
Tue 08:28:30 PM 30.3092 -96.0592 270° West 233 268 26,000 48 Climbing Houston Center
Tue 08:29:32 PM 30.3094 -96.1342 270° West 233 268 26,000 -48 Level Houston Center
Tue 08:30:34 PM 30.3131 -96.2089 273° West 231 266 25,900  Descending Houston Center
Tue 08:31:36 PM 30.3156 -96.2828 272° West 228 262 26,000  Climbing Houston Center
Tue 08:32:38 PM 30.3172 -96.3583 271° West 231 266 25,900  Descending Houston Center
Tue 08:33:40 PM 30.3194 -96.4319 272° West 229 264 26,000  Climbing Houston Center
Tue 08:34:42 PM 30.3222 -96.5169 272° West 224 258 25,900 -48 Descending Houston Center
Tue 08:35:44 PM 30.3231 -96.5906 271° West 225 259 25,900  Level Houston Center
Tue 08:36:46 PM 30.3197 -96.6633 267° West 224 258 25,900  Level Houston Center
Tue 08:37:48 PM 30.3097 -96.7367 261° West 227 261 25,900  Level Houston Center
Tue 08:38:50 PM 30.2992 -96.8092 260° West 227 261 25,900  Level Houston Center
Tue 08:39:53 PM 30.2872 -96.8856 260° West 235 270 25,900  Level Houston Center
Tue 08:40:55 PM 30.2756 -96.9625 260° West 240 276 25,900 48 Level Houston Center
Tue 08:41:57 PM 30.2664 -97.0406 262° West 242 278 26,000  Climbing Houston Center
Tue 08:42:59 PM 30.3172 -97.1089 311° West 244 281 25,900 -48 Descending Houston Center
Tue 08:44:01 PM 30.3678 -97.1608 318° Northwest 241 277 25,900  Level Houston Center
Tue 08:45:03 PM 30.4250 -97.2039 327° Northwest 243 280 25,900 48 Level Houston Center
Tue 08:46:05 PM 30.4861 -97.2397 333° Northwest 245 282 26,000  Climbing Houston Center
Tue 08:47:07 PM 30.5489 -97.2733 335° Northwest 246 283 25,900 -48 Descending Houston Center
Tue 08:48:09 PM 30.5911 -97.3325 310° West 241 277 25,900  Level Houston Center
Tue 08:49:11 PM 30.6328 -97.3931 309° West 238 274 25,900 48 Level Houston Center
Tue 08:50:13 PM 30.6800 -97.4514 313° West 243 280 26,000  Climbing Houston Center
Tue 08:51:16 PM 30.7342 -97.5211 312° West 244 281 25,900 -48 Descending Houston Center
Tue 08:52:18 PM 30.7797 -97.5811 311° West 244 281 25,900  Level Houston Center
Tue 08:53:20 PM 30.8236 -97.6414 310° West 241 277 25,900  Level Houston Center
Tue 08:54:22 PM 30.8678 -97.7028 310° West 243 280 25,900  Level Houston Center
Tue 08:55:24 PM 30.9122 -97.7642 310° West 244 281 25,900  Level Houston Center
Tue 08:55:45 PM 30.9244 -97.7861 303° West 244 281 25,900  Level Fort Worth Center
Tue 08:56:45 PM 30.9725 -97.8519 310° West 239 275 25,900  Level Fort Worth Center
Tue 08:57:28 PM 31.0003 -97.8875 312° West 244 281 25,900  Level Houston Center
Tue 08:58:30 PM 31.0561 -97.9342 324° Northwest 257 296 25,900  Level Houston Center
Tue 08:59:32 PM 31.1483 -97.9242 North 283 326 25,900  Level Houston Center
Tue 09:00:34 PM 31.2267 -97.9264 359° North 280 322 25,900  Level Houston Center
Tue 09:01:37 PM 31.3053 -97.9256 North 278 320 25,900  Level Houston Center
Tue 09:02:39 PM 31.3856 -97.9208 North 282 325 25,900  Level Houston Center
Tue 09:03:41 PM 31.4647 -97.9167 North 283 326 25,900  Level Houston Center
Tue 09:04:45 PM 31.5464 -97.9106 North 277 319 25,900 -387 Level Fort Worth Center
Tue 09:05:45 PM 31.6278 -97.9039 North 277 319 25,100 -950 Descending Fort Worth Center
Tue 09:06:45 PM 31.7156 -97.9017 North 299 344 24,000 -1,200 Descending Fort Worth Center
Tue 09:07:45 PM 31.8053 -97.8975 North 312 359 22,700 -1,311 Descending Fort Worth Center
Tue 09:08:44 PM 31.8781 -97.9417 333° Northwest 291 335 21,400 -1,513 Descending Fort Worth Center
Tue 09:09:44 PM 31.9614 -97.9864 336° Northwest 291 335 19,700 -1,289 Descending Fort Worth Center
Tue 09:10:45 PM 32.0261 -98.0236 334° Northwest 291 335 18,800 -1,537 Descending Fort Worth Center
Tue 09:11:45 PM 32.1050 -98.0706 333° Northwest 291 335 16,600 -2,471 Descending Fort Worth Center
Tue 09:12:44 PM 32.1844 -98.0786 355° North 307 353 13,900 -2,700 Descending Fort Worth Center
Tue 09:13:45 PM 32.2517 -97.9881 49° Northeast 312 359 11,200 -2,975 Descending Fort Worth Center
Tue 09:14:45 PM 32.3064 -97.9147 49° Northeast 322 371 7,900 -2,571 Descending Fort Worth Center
Tue 09:15:44 PM 32.3669 -97.8464 44° Northeast 294 338 6,100 -1,450 Descending Fort Worth Center
Tue 09:16:45 PM 32.4089 -97.7972 45° Northeast 241 277 5,000 -550 Descending Fort Worth Center
Tue 09:17:44 PM 32.4572 -97.7433 43° Northeast 214 246 5,000 -550 Level Fort Worth Center
Tue 09:18:45 PM 32.5011 -97.6967 42° Northeast 219 252 3,900 -1,000 Descending Fort Worth Center
Tue 09:19:44 PM 32.5575 -97.6450 38° Northeast 224 258 3,000 -454 Descending Fort Worth Center
Tue 09:20:44 PM 32.6014 -97.6008 40° Northeast 230 265 3,000  Level Fort Worth Center
Tue 09:21:44 PM 32.6517 -97.5417 45° Northeast 224 258 3,000  Level Fort Worth Center
Tue 09:22:45 PM 32.6872 -97.4950 48° Northeast 214 246 3,000 -99 Level Fort Worth Center
Tue 09:23:45 PM 32.7289 -97.4506 42° Northeast 189 217 2,800 -202 Descending Fort Worth Center
Tue 09:24:44 PM 32.7561 -97.4108 51° Northeast 179 206 2,600 -600 Descending Fort Worth Center
Tue 09:25:45 PM 32.7792 -97.3639 60° Northeast 153 176 1,600 -850 Descending Fort Worth Center
Tue 09:26:44 PM 32.8061 -97.3614 North 116 133 900 1,714 Descending Fort Worth Center
Tue 09:27:44 PM 32.7769 -97.4108 235° Southwest 69 79 5,000 4,100 Climbing Fort Worth Center
Tue 09:29:00 PM 32.8167 -97.3500 29° Northeast  Level FlightAware Approximate

Login

Don't have an account? Register now (free) for customized features, flight alerts, and more!